Time;durP1;ratioP1;P1;durP2;ratioP2;P2;SDS_P1;SDS_P2;PMS_P1;PMS_P2;Temp;Humidity;BMP_temperature;BMP_pressure;BME280_temperature;BME280_humidity;BME280_pressure;Samples;Min_cycle;Max_cycle;Signal;HPM_P1;HPM_P2
2021/12/16 00:01:41;;;;;;;1545.78;999.90;;;;;;;;;;5025236;28;20087;-52
2021/12/16 00:03:08;;;;;;;1572.30;999.90;;;;;;;;;;5026856;28;20439;-53
2021/12/16 00:06:01;;;;;;;1578.95;999.90;;;;;;;;;;5025568;28;20091;-53
2021/12/16 00:08:34;;;;;;;1582.68;999.90;;;;;;;;;;5023817;28;20040;-52
2021/12/16 00:30:51;;;;;;;1596.15;999.90;;;;;;;;;;5027645;28;20036;-52
2021/12/16 00:35:37;;;;;;;1591.38;999.90;;;;;;;;;;5011632;28;20029;-53
2021/12/16 00:38:03;;;;;;;1593.45;999.90;;;;;;;;;;5027429;28;20123;-53
2021/12/16 00:40:28;;;;;;;1598.22;999.90;;;;;;;;;;5027725;28;20499;-53
2021/12/16 00:42:58;;;;;;;1597.72;999.90;;;;;;;;;;5027729;28;20479;-52
2021/12/16 00:47:56;;;;;;;1598.00;999.90;;;;;;;;;;5028048;28;20052;-52
2021/12/16 00:58:05;;;;;;;1609.82;999.90;;;;;;;;;;5027676;28;20041;-52
2021/12/16 01:00:31;;;;;;;1608.43;999.90;;;;;;;;;;5027478;28;20475;-52
2021/12/16 01:03:24;;;;;;;1609.05;999.90;;;;;;;;;;5027691;28;20387;-52
2021/12/16 01:57:00;;;;;;;1618.85;999.90;;;;;;;;;;5026172;28;20049;-53
2021/12/16 01:59:33;;;;;;;1613.63;999.90;;;;;;;;;;5025948;28;20108;-52
2021/12/16 02:02:10;;;;;;;1614.15;999.90;;;;;;;;;;5026430;28;20040;-52
2021/12/16 02:04:42;;;;;;;1616.10;999.90;;;;;;;;;;5026096;28;20095;-52
2021/12/16 02:07:24;;;;;;;1616.85;999.90;;;;;;;;;;5025440;28;20067;-53
2021/12/16 02:09:50;;;;;;;1615.03;999.90;;;;;;;;;;5010922;28;20083;-52
2021/12/16 02:12:49;;;;;;;1608.47;999.90;;;;;;;;;;5025428;28;20029;-53
2021/12/16 02:36:46;;;;;;;1598.75;999.90;;;;;;;;;;5025311;28;20094;-55
2021/12/16 02:39:16;;;;;;;1608.85;999.90;;;;;;;;;;5025183;28;20503;-52
2021/12/16 02:41:42;;;;;;;1615.13;999.90;;;;;;;;;;5025140;28;20033;-52
2021/12/16 02:49:16;;;;;;;1614.72;999.90;;;;;;;;;;5024934;28;20082;-53
2021/12/16 02:51:42;;;;;;;1616.35;999.90;;;;;;;;;;5025286;28;20025;-54
2021/12/16 02:54:07;;;;;;;1616.35;999.90;;;;;;;;;;5025049;28;20482;-52
2021/12/16 02:56:32;;;;;;;1619.18;999.90;;;;;;;;;;5024982;28;20029;-53
2021/12/16 02:58:58;;;;;;;1620.35;999.90;;;;;;;;;;5025145;28;20026;-52
2021/12/16 03:01:31;;;;;;;1616.43;999.90;;;;;;;;;;5039983;28;20492;-52
2021/12/16 03:03:57;;;;;;;1615.70;999.90;;;;;;;;;;5024603;28;20120;-53
2021/12/16 03:06:22;;;;;;;1607.53;999.90;;;;;;;;;;5025010;28;20120;-52
2021/12/16 03:08:48;;;;;;;1610.30;999.90;;;;;;;;;;5024499;28;20030;-52
2021/12/16 03:11:30;;;;;;;1614.40;999.90;;;;;;;;;;5024823;28;20052;-53
2021/12/16 03:16:37;;;;;;;1613.25;999.90;;;;;;;;;;5024616;28;20033;-52
2021/12/16 03:21:40;;;;;;;1617.57;999.90;;;;;;;;;;5024645;28;20029;-52
2021/12/16 03:34:45;;;;;;;1609.65;999.90;;;;;;;;;;5024569;28;20098;-51
2021/12/16 03:37:15;;;;;;;1611.20;999.90;;;;;;;;;;5024515;28;20041;-51
2021/12/16 03:39:41;;;;;;;1608.45;999.90;;;;;;;;;;5024128;28;20057;-51
2021/12/16 03:42:07;;;;;;;1612.22;999.90;;;;;;;;;;5024237;28;20506;-51
2021/12/16 03:44:49;;;;;;;1608.10;999.90;;;;;;;;;;5024252;28;20044;-52
2021/12/16 03:47:15;;;;;;;1607.38;999.90;;;;;;;;;;5023817;28;20048;-51
2021/12/16 03:49:40;;;;;;;1609.28;999.90;;;;;;;;;;5023879;28;20104;-51
2021/12/16 03:52:06;;;;;;;1600.17;999.90;;;;;;;;;;5039527;28;20105;-53
2021/12/16 03:54:41;;;;;;;1593.75;999.90;;;;;;;;;;5022674;28;20279;-53
2021/12/16 03:57:07;;;;;;;1247.85;987.72;;;;;;;;;;5024136;28;20025;-53
2021/12/16 03:59:33;;;;;;;1097.88;977.03;;;;;;;;;;5039198;28;20032;-54
2021/12/16 04:02:11;;;;;;;965.03;861.38;;;;;;;;;;5022570;28;20813;-53
2021/12/16 04:04:37;;;;;;;971.72;868.58;;;;;;;;;;5024028;28;20037;-50
2021/12/16 04:07:03;;;;;;;983.08;875.38;;;;;;;;;;5023952;28;20033;-52
2021/12/16 04:09:30;;;;;;;1106.88;984.58;;;;;;;;;;5023513;28;20498;-51
2021/12/16 04:12:03;;;;;;;1268.18;999.90;;;;;;;;;;5024079;28;20040;-53
2021/12/16 04:14:29;;;;;;;1768.13;999.90;;;;;;;;;;5023894;28;20056;-52
2021/12/16 04:16:54;;;;;;;1819.07;999.90;;;;;;;;;;5023739;28;20045;-53
2021/12/16 04:19:20;;;;;;;1809.00;999.90;;;;;;;;;;5023608;28;20053;-51
2021/12/16 04:21:47;;;;;;;1750.88;999.90;;;;;;;;;;5023805;28;20091;-53
2021/12/16 04:24:12;;;;;;;1794.88;999.90;;;;;;;;;;5023754;28;20032;-54
2021/12/16 04:26:38;;;;;;;1796.05;999.90;;;;;;;;;;5024060;28;20025;-51
2021/12/16 04:29:04;;;;;;;1795.43;999.90;;;;;;;;;;5023309;28;20483;-53
2021/12/16 04:31:29;;;;;;;1795.95;999.90;;;;;;;;;;5022728;28;20026;-52
2021/12/16 04:33:55;;;;;;;1804.85;999.90;;;;;;;;;;5022650;28;20025;-53
2021/12/16 04:36:20;;;;;;;1804.32;999.90;;;;;;;;;;5023370;28;20087;-53
2021/12/16 04:38:45;;;;;;;1778.17;999.90;;;;;;;;;;5023712;28;20176;-53
2021/12/16 04:41:12;;;;;;;1825.72;999.90;;;;;;;;;;5023423;28;20375;-53
2021/12/16 04:43:40;;;;;;;1821.53;999.90;;;;;;;;;;5023373;28;20086;-53
2021/12/16 04:46:09;;;;;;;1809.40;999.90;;;;;;;;;;5023682;28;20475;-54
2021/12/16 04:48:34;;;;;;;1812.10;999.90;;;;;;;;;;5023302;28;20502;-52
2021/12/16 04:51:00;;;;;;;1814.55;999.90;;;;;;;;;;5038796;28;20022;-51
2021/12/16 04:53:25;;;;;;;1807.22;999.90;;;;;;;;;;5023292;28;20029;-52
2021/12/16 04:55:50;;;;;;;1682.27;999.90;;;;;;;;;;5023021;28;20073;-53
2021/12/16 04:58:16;;;;;;;1645.20;999.90;;;;;;;;;;5009136;28;20404;-52
2021/12/16 05:01:30;;;;;;;1175.60;932.25;;;;;;;21.29;38.69;95766.78;5059800;28;20355;-54
2021/12/16 05:03:56;;;;;;;987.05;741.15;;;;;;;21.38;38.25;95768.59;5060813;28;20449;-54
2021/12/16 05:06:22;;;;;;;1703.60;999.90;;;;;;;21.43;38.13;95757.78;5060923;28;20043;-53
2021/12/16 05:08:47;;;;;;;1594.85;999.90;;;;;;;21.51;38.06;95761.63;5060361;28;20025;-52
2021/12/16 05:11:14;;;;;;;1477.78;999.90;;;;;;;21.64;38.02;95765.47;5060460;28;20048;-54
2021/12/16 05:13:40;;;;;;;1640.13;999.90;;;;;;;21.80;37.79;95755.97;5060715;28;20017;-53
2021/12/16 05:16:06;;;;;;;1744.25;999.90;;;;;;;21.89;37.55;95769.41;5061199;28;20028;-55
2021/12/16 05:18:34;;;;;;;1743.72;999.90;;;;;;;21.97;37.22;95758.34;5061158;28;20021;-54
2021/12/16 05:21:04;;;;;;;1753.82;999.90;;;;;;;22.14;37.08;95767.38;5058497;28;20029;-55
2021/12/16 05:26:19;;;;;;;1753.80;999.90;;;;;;;22.37;36.70;95766.34;5060604;28;20044;-54
2021/12/16 05:28:50;;;;;;;1746.47;999.90;;;;;;;22.56;36.23;95768.22;5049307;28;20030;-55
2021/12/16 05:31:16;;;;;;;1763.93;999.90;;;;;;;22.73;36.24;95771.03;5057326;28;20090;-54
2021/12/16 05:33:41;;;;;;;1771.22;999.90;;;;;;;22.86;35.82;95763.19;5055975;28;20472;-54
2021/12/16 05:36:07;;;;;;;1730.25;999.90;;;;;;;22.93;35.18;95763.50;5054572;28;20029;-53
2021/12/16 05:38:32;;;;;;;1763.03;999.90;;;;;;;23.09;35.38;95769.03;5046841;28;20025;-55
2021/12/16 05:40:58;;;;;;;1764.35;999.90;;;;;;;23.17;34.95;95772.78;5054059;28;20036;-54
2021/12/16 05:43:24;;;;;;;1789.03;999.90;;;;;;;23.23;35.02;95768.09;5059348;28;20063;-54
2021/12/16 05:45:51;;;;;;;1740.13;999.90;;;;;;;23.33;34.67;95772.09;5060073;28;20395;-53
2021/12/16 05:48:23;;;;;;;1759.30;999.90;;;;;;;23.40;35.05;95774.34;4898411;27;20176;-54
2021/12/16 05:50:56;;;;;;;1788.10;999.90;;;;;;;23.46;34.73;95758.75;4998599;28;20132;-54
2021/12/16 05:53:22;;;;;;;1794.70;999.90;;;;;;;23.52;34.30;95760.25;5037721;28;20029;-53
2021/12/16 05:55:48;;;;;;;1778.60;999.90;;;;;;;23.46;34.88;95745.13;5035734;28;20389;-54
2021/12/16 05:58:18;;;;;;;1791.93;999.90;;;;;;;23.67;34.31;95760.06;5039901;28;20487;-54
2021/12/16 06:00:43;;;;;;;;;;;;;;;23.70;34.57;95764.53;5041470;28;20049;-53
2021/12/16 06:03:09;;;;;;;1771.53;999.90;;;;;;;23.71;34.50;95760.59;5040280;28;19924;-53
2021/12/16 06:05:34;;;;;;;1792.70;999.90;;;;;;;23.83;33.93;95762.09;5038214;28;20020;-54
2021/12/16 06:08:00;;;;;;;1792.28;999.90;;;;;;;23.86;34.40;95762.59;5022349;28;20036;-53
2021/12/16 06:12:56;;;;;;;1802.85;999.90;;;;;;;24.01;33.87;95774.00;5026674;28;20080;-54
2021/12/16 06:15:39;;;;;;;1776.97;999.90;;;;;;;23.98;33.85;95757.88;5027108;28;20524;-52
2021/12/16 06:26:32;;;;;;;1808.00;999.90;;;;;;;24.34;34.17;95768.59;5045242;28;20036;-54
2021/12/16 06:28:57;;;;;;;1816.38;999.90;;;;;;;24.41;33.87;95768.09;5047004;28;20484;-53
2021/12/16 06:31:22;;;;;;;1813.43;999.90;;;;;;;24.43;34.00;95754.69;5024589;28;20091;-55
2021/12/16 06:33:48;;;;;;;1794.90;999.90;;;;;;;24.39;34.21;95767.84;5026134;28;20513;-56
2021/12/16 06:36:14;;;;;;;1787.65;999.90;;;;;;;24.47;33.68;95766.09;5021782;28;20476;-53
2021/12/16 06:38:39;;;;;;;1768.78;999.90;;;;;;;24.49;33.86;95769.06;5014113;28;20021;-53
2021/12/16 06:41:04;;;;;;;1766.43;999.90;;;;;;;24.49;33.79;95758.16;5019686;28;20362;-52
2021/12/16 06:43:31;;;;;;;1763.18;999.90;;;;;;;24.53;34.21;95761.38;5025375;28;20091;-57
2021/12/16 06:45:59;;;;;;;1771.30;999.90;;;;;;;24.56;33.64;95758.38;5025723;28;20033;-53
2021/12/16 06:48:29;;;;;;;1775.85;999.90;;;;;;;24.54;33.79;95760.13;5025269;28;20132;-55
2021/12/16 06:50:59;;;;;;;1759.35;999.90;;;;;;;24.57;34.06;95765.34;5025540;28;20099;-55
2021/12/16 06:53:32;;;;;;;;;;;;;;;24.62;33.66;95761.09;5025412;28;20036;-54
2021/12/16 07:01:06;;;;;;;1777.07;999.90;;;;;;;24.63;33.88;95762.59;5022904;28;20704;-55
2021/12/16 07:03:44;;;;;;;1814.20;999.90;;;;;;;24.72;33.41;95765.06;5023119;28;20037;-55
2021/12/16 07:06:10;;;;;;;1821.63;999.90;;;;;;;24.67;33.76;95763.09;5025878;28;20116;-55
2021/12/16 07:08:35;;;;;;;1824.85;999.90;;;;;;;24.71;33.76;95752.63;5025549;28;20029;-56
2021/12/16 07:11:01;;;;;;;1827.30;999.90;;;;;;;24.73;33.45;95756.38;5025731;28;20029;-58
2021/12/16 07:13:39;;;;;;;1832.40;999.90;;;;;;;24.72;33.99;95762.34;5025522;28;20041;-56
2021/12/16 07:16:05;;;;;;;1817.68;999.90;;;;;;;24.66;33.68;95745.22;5017096;28;20558;-57
2021/12/16 07:18:30;;;;;;;1817.38;999.90;;;;;;;24.75;33.94;95758.59;5019540;28;20057;-57
2021/12/16 07:20:56;;;;;;;1822.70;999.90;;;;;;;24.76;33.92;95760.09;5025409;28;20039;-56
2021/12/16 07:23:21;;;;;;;1758.75;999.90;;;;;;;24.81;33.60;95767.53;5032083;28;20396;-53
2021/12/16 07:25:47;;;;;;;1773.60;999.90;;;;;;;24.87;33.56;95763.53;5024740;28;20123;-52
2021/12/16 07:28:12;;;;;;;1806.25;999.90;;;;;;;24.89;33.30;95759.06;5025180;28;20029;-53
2021/12/16 07:30:39;;;;;;;1815.13;999.90;;;;;;;24.95;33.60;95762.53;5015554;28;20022;-58
2021/12/16 07:33:05;;;;;;;1820.15;999.90;;;;;;;25.05;33.01;95761.03;4983199;28;20046;-56
2021/12/16 07:35:30;;;;;;;1821.55;999.90;;;;;;;25.01;33.12;95760.53;5014116;28;20036;-54
2021/12/16 07:37:56;;;;;;;1824.43;999.90;;;;;;;24.96;33.28;95764.00;5008191;28;20459;-57
2021/12/16 07:40:22;;;;;;;1822.40;999.90;;;;;;;24.97;33.07;95770.22;5009201;28;20515;-54
2021/12/16 07:45:43;;;;;;;1812.32;999.90;;;;;;;24.92;33.39;95773.72;5009369;28;20117;-52
2021/12/16 07:48:10;;;;;;;1815.97;999.90;;;;;;;24.93;32.95;95765.03;5009913;28;20369;-54
2021/12/16 07:50:35;;;;;;;1827.25;999.90;;;;;;;24.93;33.43;95764.25;5008031;28;20040;-55
2021/12/16 07:53:01;;;;;;;1820.43;999.90;;;;;;;24.91;33.12;95772.94;5009366;28;20022;-53
2021/12/16 07:55:26;;;;;;;1826.78;999.90;;;;;;;24.91;33.30;95772.94;5011216;28;20033;-56
2021/12/16 07:57:52;;;;;;;1817.80;999.90;;;;;;;24.94;33.57;95761.03;5041581;28;20495;-52
2021/12/16 08:00:23;;;;;;;1823.80;999.90;;;;;;;24.86;32.89;95749.13;5024684;28;20495;-53
2021/12/16 08:02:48;;;;;;;1826.95;999.90;;;;;;;25.01;33.60;95766.00;5024322;28;20033;-53
2021/12/16 08:05:14;;;;;;;1823.30;999.90;;;;;;;25.00;33.08;95772.72;5025045;28;20030;-53
2021/12/16 08:07:40;;;;;;;1802.22;999.90;;;;;;;25.11;33.83;95780.91;5024980;28;20499;-54
2021/12/16 08:10:08;;;;;;;1815.68;999.90;;;;;;;25.11;33.98;95786.38;5026095;28;20052;-52
2021/12/16 08:12:33;;;;;;;1819.22;999.90;;;;;;;25.13;34.07;95778.41;5020171;28;20036;-51
2021/12/16 08:14:58;;;;;;;1791.72;999.90;;;;;;;25.13;33.94;95778.41;5024639;28;20030;-53
2021/12/16 08:17:24;;;;;;;1835.07;999.90;;;;;;;25.10;34.00;95768.47;5024324;28;20029;-53
2021/12/16 08:19:49;;;;;;;1817.20;999.90;;;;;;;25.14;34.17;95768.97;5024441;28;20143;-53
2021/12/16 08:22:15;;;;;;;1835.47;999.90;;;;;;;25.17;34.34;95778.88;5023823;28;20032;-52
2021/12/16 08:24:40;;;;;;;1821.60;999.90;;;;;;;25.17;34.99;95770.69;5024255;28;20029;-55
2021/12/16 08:27:06;;;;;;;1852.18;999.90;;;;;;;25.20;34.72;95772.41;5024575;28;20466;-56
2021/12/16 08:29:32;;;;;;;1859.45;999.90;;;;;;;25.21;34.84;95779.34;5024051;28;20063;-55
2021/12/16 08:31:57;;;;;;;1857.30;999.90;;;;;;;25.23;34.79;95776.88;5020113;28;20022;-55
2021/12/16 08:34:24;;;;;;;1848.40;999.90;;;;;;;25.20;35.03;95772.41;5020358;28;20275;-55
2021/12/16 08:36:49;;;;;;;1841.55;999.90;;;;;;;25.22;34.88;95772.66;5012416;28;20026;-54
2021/12/16 08:39:15;;;;;;;1856.90;999.90;;;;;;;25.26;34.51;95770.41;5012407;28;20022;-54
2021/12/16 08:41:49;;;;;;;1861.18;999.90;;;;;;;25.34;34.76;95771.34;5019331;28;20041;-53
2021/12/16 08:44:16;;;;;;;1871.93;999.90;;;;;;;25.34;34.55;95768.63;5021980;28;20491;-54
2021/12/16 08:46:44;;;;;;;1861.38;999.90;;;;;;;25.31;34.31;95771.63;5023773;28;20036;-53
2021/12/16 08:49:09;;;;;;;1854.55;999.90;;;;;;;25.19;32.89;95765.44;5023970;28;20091;-53
2021/12/16 08:51:37;;;;;;;1723.90;999.90;;;;;;;25.13;33.01;95762.00;5021497;28;20558;-52
2021/12/16 08:54:03;;;;;;;1731.57;999.90;;;;;;;25.02;33.56;95762.03;5021314;28;20095;-53
2021/12/16 08:56:30;;;;;;;1721.82;999.90;;;;;;;24.94;34.31;95760.28;5015546;28;20022;-52
2021/12/16 08:58:56;;;;;;;1728.70;999.90;;;;;;;24.86;34.42;95762.78;5014038;28;20029;-54
2021/12/16 09:01:24;;;;;;;1721.18;999.90;;;;;;;24.83;34.15;95761.06;5022624;28;20076;-53
2021/12/16 09:03:50;;;;;;;1719.10;999.90;;;;;;;24.65;34.53;95746.44;5022472;28;20033;-54
2021/12/16 09:06:15;;;;;;;1719.68;999.90;;;;;;;24.53;34.46;95737.53;5022968;28;20028;-52
2021/12/16 09:08:40;;;;;;;1714.38;999.90;;;;;;;24.55;34.65;95748.69;5023187;28;20022;-52
2021/12/16 09:11:08;;;;;;;1717.07;999.90;;;;;;;24.52;34.88;95740.78;5023134;28;20041;-53
2021/12/16 09:13:34;;;;;;;1717.85;999.90;;;;;;;24.52;34.60;95740.78;5022870;28;20041;-54
2021/12/16 09:16:02;;;;;;;1710.65;999.90;;;;;;;24.45;34.98;95741.28;5020602;28;20396;-53
2021/12/16 09:18:29;;;;;;;1708.50;999.90;;;;;;;24.33;35.23;95739.78;5017570;28;20026;-54
2021/12/16 09:20:55;;;;;;;1707.70;999.90;;;;;;;24.26;34.88;95740.28;5017784;28;20163;-55
2021/12/16 09:23:21;;;;;;;1702.95;999.90;;;;;;;24.17;34.95;95745.22;5020357;28;20048;-54
2021/12/16 09:25:46;;;;;;;1701.65;999.90;;;;;;;24.05;35.16;95736.31;5022822;28;20037;-53
2021/12/16 09:28:12;;;;;;;1703.03;999.90;;;;;;;23.98;34.99;95731.34;5023185;28;20028;-53
2021/12/16 09:30:38;;;;;;;1721.93;999.90;;;;;;;23.92;35.78;95738.78;5023557;28;20495;-55
2021/12/16 09:33:04;;;;;;;1727.63;999.90;;;;;;;23.89;35.65;95728.84;5014223;28;20148;-53
2021/12/16 09:35:33;;;;;;;1726.80;999.90;;;;;;;23.87;35.32;95734.06;5018877;28;20026;-53
2021/12/16 09:38:01;;;;;;;1722.47;999.90;;;;;;;23.79;35.59;95734.31;5007603;28;20075;-53
2021/12/16 09:40:28;;;;;;;1710.53;999.90;;;;;;;23.76;35.23;95735.31;5023332;28;20192;-54
2021/12/16 09:42:54;;;;;;;1707.43;999.90;;;;;;;23.71;35.44;95722.41;5023152;28;20124;-53
2021/12/16 09:45:21;;;;;;;1723.55;999.90;;;;;;;23.65;35.54;95732.56;5023370;28;20120;-54
2021/12/16 09:47:46;;;;;;;1725.85;999.90;;;;;;;23.38;32.42;95711.41;5026686;28;20641;-53
2021/12/16 09:50:15;;;;;;;7.17;3.90;;;;;;;23.01;35.76;95708.06;5027130;28;20427;-63
2021/12/16 09:52:56;;;;;;;4.78;3.15;;;;;;;23.54;35.36;95724.31;5122341;27;20132;-53
2021/12/16 09:55:22;;;;;;;5.78;3.20;;;;;;;23.63;35.09;95721.34;5122538;28;20782;-54
2021/12/16 09:57:47;;;;;;;5.13;3.10;;;;;;;23.64;35.16;95722.88;5122197;28;20070;-52
2021/12/16 10:00:14;;;;;;;5.15;3.28;;;;;;;23.65;35.22;95727.13;5122397;28;20024;-52
2021/12/16 10:02:40;;;;;;;7.35;3.67;;;;;;;23.61;35.42;95730.03;5122480;28;20076;-52
2021/12/16 10:05:07;;;;;;;5.95;3.50;;;;;;;23.58;35.64;95724.84;5122507;28;20031;-55
2021/12/16 10:07:34;;;;;;;5.72;3.38;;;;;;;23.57;35.90;95723.34;5122169;28;20035;-52
2021/12/16 10:10:00;;;;;;;5.47;3.38;;;;;;;23.55;35.39;95720.38;5122509;27;20023;-53
2021/12/16 10:12:31;;;;;;;5.55;3.33;;;;;;;23.52;35.70;95715.91;5121644;28;20047;-52
2021/12/16 10:17:31;;;;;;;5.60;3.42;;;;;;;23.50;35.90;95699.28;5121922;28;20034;-54
2021/12/16 10:20:09;;;;;;;5.80;3.40;;;;;;;23.48;36.01;95704.47;5125056;28;20031;-54
2021/12/16 10:22:40;;;;;;;5.82;3.55;;;;;;;23.42;35.78;95693.59;5124654;28;20496;-55
2021/12/16 10:25:20;;;;;;;5.72;3.20;;;;;;;23.40;35.75;95693.31;5124836;28;20415;-53
2021/12/16 10:27:58;;;;;;;4.33;3.33;;;;;;;23.40;35.72;95693.31;5122650;28;20121;-51
2021/12/16 10:30:25;;;;;;;6.53;3.95;;;;;;;23.37;36.06;95693.56;5121908;28;20114;-52
2021/12/16 10:32:50;;;;;;;5.40;3.72;;;;;;;23.35;35.99;95687.09;5121994;28;20826;-52
2021/12/16 10:35:29;;;;;;;4.72;3.00;;;;;;;23.33;35.92;95682.16;5121507;28;20106;-53
2021/12/16 10:38:04;;;;;;;6.03;3.30;;;;;;;23.32;36.05;95680.69;5121472;28;20064;-53
2021/12/16 10:40:37;;;;;;;4.82;2.90;;;;;;;23.30;36.49;95677.69;5129687;27;20028;-53
2021/12/16 10:43:33;;;;;;;6.20;3.50;;;;;;;23.27;36.01;95672.47;5114393;28;20038;-54
2021/12/16 10:46:08;;;;;;;5.95;3.10;;;;;;;23.24;36.15;95678.91;5141509;27;20034;-57
2021/12/16 10:48:35;;;;;;;6.28;2.92;;;;;;;23.21;36.32;95677.91;5136860;27;20102;-54
2021/12/16 10:51:03;;;;;;;6.72;3.15;;;;;;;23.20;36.26;95671.00;5122236;27;20053;-55
2021/12/16 10:53:51;;;;;;;5.50;2.75;;;;;;;23.18;36.54;95670.72;5124267;28;20027;-57
2021/12/16 10:56:18;;;;;;;5.13;2.63;;;;;;;23.17;36.56;95680.16;5123904;28;20028;-58
2021/12/16 10:58:55;;;;;;;5.97;3.05;;;;;;;23.21;37.04;95675.19;5122738;28;20020;-53
2021/12/16 11:01:36;;;;;;;6.82;2.92;;;;;;;23.26;36.89;95671.75;5121969;28;20043;-54
2021/12/16 11:04:03;;;;;;;4.45;2.78;;;;;;;23.29;37.21;95670.75;5108888;28;20028;-52
2021/12/16 11:06:36;;;;;;;4.95;2.90;;;;;;;23.34;37.21;95661.84;5086050;28;20027;-52
2021/12/16 11:09:21;;;;;;;5.63;3.03;;;;;;;23.44;36.67;95661.13;5099256;28;20558;-54
2021/12/16 11:11:47;;;;;;;5.10;3.40;;;;;;;23.51;37.20;95654.41;5107670;28;20039;-53
2021/12/16 11:14:12;;;;;;;6.40;3.20;;;;;;;23.64;37.24;95668.34;5107680;27;20030;-57
2021/12/16 11:16:38;;;;;;;6.70;3.00;;;;;;;23.74;36.99;95662.16;5106486;28;20039;-54
2021/12/16 11:19:03;;;;;;;4.50;3.08;;;;;;;23.84;38.17;95671.59;5058596;28;20047;-53
2021/12/16 11:21:40;;;;;;;7.28;3.60;;;;;;;23.96;39.22;95649.25;5069587;28;20032;-55
2021/12/16 11:24:24;;;;;;;6.47;2.97;;;;;;;24.14;40.87;95656.94;5065255;28;20040;-56
2021/12/16 11:26:49;;;;;;;6.25;3.38;;;;;;;24.22;39.59;95657.16;5065252;28;20403;-53
2021/12/16 11:29:15;;;;;;;5.80;3.33;;;;;;;24.31;40.25;95654.91;5065901;28;20028;-55
2021/12/16 11:31:40;;;;;;;5.35;3.22;;;;;;;24.43;40.04;95656.41;5065441;28;20414;-54
2021/12/16 11:34:09;;;;;;;4.50;3.20;;;;;;;24.52;40.58;95647.94;5066403;28;20540;-52
2021/12/16 11:36:37;;;;;;;6.38;3.53;;;;;;;24.63;40.36;95651.34;5066239;28;20308;-53
2021/12/16 11:39:13;;;;;;;6.85;3.60;;;;;;;24.69;41.50;95645.88;5066488;28;20044;-53
2021/12/16 11:41:43;;;;;;;8.35;3.50;;;;;;;24.80;40.84;95657.50;5066092;28;20036;-54
2021/12/16 11:44:14;;;;;;;8.75;3.80;;;;;;;24.88;40.40;95656.47;5066164;28;20486;-55
2021/12/16 11:46:56;;;;;;;6.65;3.50;;;;;;;25.01;40.54;95651.22;5066125;28;20047;-55
2021/12/16 11:49:33;;;;;;;6.53;2.95;;;;;;;25.08;40.47;95645.25;5066283;28;20028;-54
2021/12/16 11:52:12;;;;;;;5.18;3.28;;;;;;;25.09;40.62;95652.16;5065734;28;20094;-55
2021/12/16 11:54:43;;;;;;;6.15;3.72;;;;;;;25.15;40.00;95644.69;5066036;28;20028;-53
2021/12/16 11:57:24;;;;;;;5.88;3.50;;;;;;;25.28;39.63;95653.06;5065879;28;20515;-56
2021/12/16 11:59:52;;;;;;;5.68;3.40;;;;;;;25.25;39.59;95643.16;5065950;28;20525;-55
2021/12/16 12:02:40;;;;;;;4.65;3.00;;;;;;;25.36;39.90;95643.06;5065999;28;20077;-54
2021/12/16 12:05:16;;;;;;;6.47;3.55;;;;;;;25.32;39.99;95648.09;5065597;28;20108;-53
2021/12/16 12:07:44;;;;;;;5.05;2.95;;;;;;;25.36;39.80;95632.88;5065717;28;20057;-53
2021/12/16 12:10:10;;;;;;;5.70;3.30;;;;;;;25.41;39.66;95634.06;5065767;28;20028;-53
2021/12/16 12:12:46;;;;;;;7.55;3.70;;;;;;;25.49;39.94;95633.03;5065712;28;20420;-54
2021/12/16 12:15:13;;;;;;;6.15;3.38;;;;;;;25.44;39.68;95635.81;5064866;28;20644;-52
2021/12/16 12:17:50;;;;;;;7.68;3.30;;;;;;;25.62;39.62;95637.91;5065288;28;20495;-53
2021/12/16 12:20:17;;;;;;;4.85;3.10;;;;;;;25.54;39.20;95642.44;5063853;28;20031;-54
2021/12/16 12:22:42;;;;;;;6.32;3.58;;;;;;;25.60;39.06;95634.94;5065543;28;20029;-52
2021/12/16 12:25:08;;;;;;;6.35;3.63;;;;;;;25.63;39.56;95639.41;5065526;28;20024;-54
2021/12/16 12:27:33;;;;;;;4.82;3.00;;;;;;;25.63;39.55;95633.94;5065687;28;20051;-53
2021/12/16 12:30:00;;;;;;;5.68;2.88;;;;;;;25.63;39.51;95642.13;5065125;28;20033;-54
2021/12/16 12:32:33;;;;;;;7.57;2.95;;;;;;;25.74;39.29;95634.63;5065561;28;20028;-52
2021/12/16 12:35:00;;;;;;;4.88;3.00;;;;;;;25.76;38.55;95642.31;5060319;28;20028;-57
2021/12/16 12:37:28;;;;;;;4.82;3.00;;;;;;;25.70;39.27;95634.16;5045545;28;20158;-53
2021/12/16 12:40:00;;;;;;;5.47;3.05;;;;;;;25.62;39.27;95643.38;5046658;28;20029;-53
2021/12/16 12:42:26;;;;;;;5.82;2.95;;;;;;;25.63;38.72;95647.59;5045615;28;20032;-53
2021/12/16 12:44:51;;;;;;;8.70;3.35;;;;;;;25.61;39.07;95647.38;5045482;28;20029;-52
2021/12/16 12:47:20;;;;;;;5.85;3.15;;;;;;;25.68;39.29;95652.31;5045466;28;20569;-53
2021/12/16 12:49:46;;;;;;;5.70;3.38;;;;;;;25.70;39.44;95649.84;5077416;28;20033;-53
2021/12/16 12:52:14;;;;;;;5.72;2.83;;;;;;;25.75;39.28;95640.84;5045247;28;20060;-54
2021/12/16 12:54:42;;;;;;;5.97;3.00;;;;;;;25.74;39.26;95644.81;5045063;28;20021;-52
2021/12/16 12:57:20;;;;;;;3.70;2.80;;;;;;;25.80;39.10;95632.59;5045167;28;20029;-52
2021/12/16 12:59:46;;;;;;;5.78;3.28;;;;;;;25.78;39.25;95639.81;5045708;28;20083;-55
2021/12/16 13:02:17;;;;;;;4.70;2.85;;;;;;;25.81;39.17;95634.81;5052718;28;20025;-58
2021/12/16 13:04:47;;;;;;;4.00;2.90;;;;;;;25.82;39.17;95633.53;5063204;28;20029;-54
2021/12/16 13:07:13;;;;;;;5.28;3.20;;;;;;;25.80;39.13;95627.84;5055176;28;20500;-52
2021/12/16 13:09:49;;;;;;;4.10;3.05;;;;;;;25.84;39.28;95633.78;5055630;28;20089;-54
2021/12/16 13:12:21;;;;;;;6.35;2.92;;;;;;;25.85;38.99;95640.72;5049792;28;20032;-56
2021/12/16 13:14:51;;;;;;;4.28;2.88;;;;;;;25.84;38.98;95635.78;5057511;28;20025;-54
2021/12/16 13:28:38;;;;;;;4.28;2.80;;;;;;;25.91;38.60;95633.22;5055173;28;20481;-54
2021/12/16 13:31:22;;;;;;;4.38;2.88;;;;;;;25.91;39.04;95633.22;5057791;28;20029;-52
2021/12/16 13:33:54;;;;;;;4.57;2.65;;;;;;;25.90;39.02;95637.22;5062989;28;20115;-53
2021/12/16 13:36:39;;;;;;;4.40;2.80;;;;;;;25.97;38.81;95636.66;5062902;28;20115;-52
2021/12/16 13:39:19;;;;;;;4.55;2.80;;;;;;;25.95;39.14;95628.22;5062731;28;20051;-54
2021/12/16 13:41:57;;;;;;;3.75;2.58;;;;;;;25.95;38.70;95639.16;5062059;28;20068;-51
2021/12/16 13:44:43;;;;;;;4.60;2.70;;;;;;;25.92;39.01;95637.44;5063356;28;20036;-53
2021/12/16 13:58:20;;;;;;;5.18;2.90;;;;;;;25.97;39.18;95642.13;5063493;28;20094;-53
2021/12/16 14:08:50;;;;;;;4.20;2.90;;;;;;;25.88;40.09;95653.41;5061726;28;20398;-55
2021/12/16 14:23:13;;;;;;;3.60;3.00;;;;;;;25.79;40.36;95670.13;5063787;28;20539;-54
2021/12/16 14:31:18;;;;;;;3.75;2.35;;;;;;;25.88;40.00;95672.56;5062882;28;20069;-52
2021/12/16 14:50:10;;;;;;;4.32;2.65;;;;;;;25.92;39.65;95673.03;5066899;28;20036;-53
2021/12/16 14:52:36;;;;;;;5.07;2.53;;;;;;;25.93;39.16;95671.78;5067213;28;20056;-55
2021/12/16 14:55:10;;;;;;;4.40;2.63;;;;;;;25.99;39.23;95677.97;5067105;28;20032;-53
2021/12/16 14:57:40;;;;;;;3.90;2.80;;;;;;;25.99;39.42;95677.19;5067204;28;20033;-53
2021/12/16 15:00:18;;;;;;;3.47;2.60;;;;;;;26.01;39.60;95675.44;5066923;28;20040;-54
2021/12/16 15:02:45;;;;;;;4.28;2.70;;;;;;;25.98;39.65;95673.72;5066998;28;20573;-52
2021/12/16 15:05:41;;;;;;;5.13;2.90;;;;;;;26.02;39.83;95676.16;5065770;28;20056;-52
2021/12/16 15:08:24;;;;;;;4.30;2.80;;;;;;;25.95;39.69;95665.81;5066908;28;20028;-52
2021/12/16 15:10:50;;;;;;;4.55;3.00;;;;;;;25.92;39.49;95662.06;5066759;28;20040;-53
2021/12/16 15:13:23;;;;;;;4.28;2.67;;;;;;;25.92;39.03;95667.56;5066126;28;20045;-53
2021/12/16 15:38:04;;;;;;;5.00;3.13;;;;;;;26.15;38.91;95674.31;5066247;28;20105;-53
2021/12/16 15:42:57;;;;;;;4.57;2.92;;;;;;;26.03;38.89;95678.41;5066090;28;20041;-52
2021/12/16 15:45:30;;;;;;;5.32;3.30;;;;;;;26.13;38.63;95687.78;5062041;28;20110;-55
2021/12/16 15:47:59;;;;;;;4.30;3.33;;;;;;;26.11;38.89;95693.00;5096127;28;20036;-53
2021/12/16 15:50:30;;;;;;;4.80;3.25;;;;;;;26.03;39.06;95694.81;5066015;28;20558;-53
2021/12/16 15:52:57;;;;;;;4.40;2.90;;;;;;;25.97;38.92;95696.88;5064885;28;20080;-53